createdAt,value
2017-12-13T00:01:32.002Z,12.67
2017-12-13T00:03:58.730Z,10.80
2017-12-13T00:06:25.412Z,11.87
2017-12-13T00:09:08.989Z,12.37
2017-12-13T00:11:36.682Z,13.20
2017-12-13T00:14:03.415Z,13.90
2017-12-13T00:16:43.432Z,14.30
2017-12-13T00:19:16.661Z,12.57
2017-12-13T00:21:47.739Z,14.20
2017-12-13T00:24:14.460Z,12.13
2017-12-13T00:26:41.140Z,12.90
2017-12-13T00:29:07.900Z,13.17
2017-12-13T00:31:40.366Z,12.90
2017-12-13T00:34:14.648Z,13.30
2017-12-13T00:39:39.742Z,15.40
2017-12-13T00:42:12.865Z,12.27
2017-12-13T00:44:40.583Z,15.90
2017-12-13T00:47:07.280Z,14.33
2017-12-13T00:49:34.022Z,15.67
2017-12-13T00:52:02.754Z,16.67
2017-12-13T00:54:31.428Z,16.17
2017-12-13T00:56:58.138Z,16.23
2017-12-13T00:59:31.984Z,15.77
2017-12-13T01:01:58.692Z,15.70
2017-12-13T01:04:26.398Z,16.67
2017-12-13T01:06:53.178Z,15.20
2017-12-13T01:09:23.224Z,16.53
2017-12-13T01:12:03.469Z,15.67
2017-12-13T01:14:37.700Z,17.03
2017-12-13T01:17:07.710Z,14.30
2017-12-13T01:19:40.323Z,13.80
2017-12-13T01:22:08.026Z,15.20
2017-12-13T01:24:41.176Z,15.70
2017-12-13T01:27:17.894Z,16.87
2017-12-13T01:29:44.612Z,14.77
2017-12-13T01:32:11.352Z,13.67
2017-12-13T01:34:38.074Z,12.80
2017-12-13T01:37:07.908Z,13.60
2017-12-13T01:39:40.415Z,15.47
2017-12-13T01:42:07.164Z,17.23
2017-12-13T01:44:33.878Z,16.20
2017-12-13T01:47:07.592Z,15.77
2017-12-13T01:49:34.276Z,15.77
2017-12-13T01:52:10.918Z,14.77
2017-12-13T01:54:37.689Z,14.53
2017-12-13T01:57:04.392Z,15.93
2017-12-13T01:59:34.570Z,16.00
2017-12-13T02:02:01.262Z,15.17
2017-12-13T02:04:27.946Z,15.67
2017-12-13T02:07:02.261Z,16.60
2017-12-13T02:09:41.668Z,16.30
2017-12-13T02:12:14.908Z,15.50
2017-12-13T02:17:27.119Z,16.30
2017-12-13T02:19:53.853Z,16.40
2017-12-13T02:22:20.597Z,16.13
2017-12-13T02:24:47.420Z,15.63
2017-12-13T02:27:23.962Z,14.03
2017-12-13T02:29:51.778Z,14.80
2017-12-13T02:32:18.476Z,14.47
2017-12-13T02:35:04.570Z,13.53
2017-12-13T02:40:23.489Z,16.67
2017-12-13T02:45:35.753Z,14.90
2017-12-13T02:48:02.490Z,14.03
2017-12-13T02:50:29.226Z,14.27
2017-12-13T02:52:55.958Z,12.70
2017-12-13T02:55:30.563Z,14.03
2017-12-13T02:58:00.430Z,12.10
2017-12-13T03:00:27.158Z,12.43
2017-12-13T03:02:53.850Z,15.23
2017-12-13T03:05:27.898Z,15.77
2017-12-13T03:08:00.480Z,14.90
2017-12-13T03:10:29.228Z,14.30
2017-12-13T03:12:55.925Z,14.23
2017-12-13T03:15:25.951Z,13.63
2017-12-13T03:17:56.738Z,13.43
2017-12-13T03:20:30.909Z,14.17
2017-12-13T03:23:03.916Z,13.60
2017-12-13T03:25:30.657Z,12.77
2017-12-13T03:27:57.407Z,13.40
2017-12-13T03:30:33.994Z,12.10
2017-12-13T03:33:07.541Z,13.33
2017-12-13T03:35:44.076Z,12.67
2017-12-13T03:38:10.779Z,11.47
2017-12-13T03:43:36.904Z,11.23
2017-12-13T03:46:04.634Z,12.83
2017-12-13T03:48:31.353Z,13.23
2017-12-13T03:51:11.265Z,13.67
2017-12-13T03:53:41.514Z,14.00
2017-12-13T03:56:18.329Z,13.13
2017-12-13T03:58:45.089Z,14.30
2017-12-13T04:01:11.801Z,13.23
2017-12-13T04:03:45.101Z,13.10
2017-12-13T04:11:49.248Z,13.30
2017-12-13T04:14:19.300Z,14.30
2017-12-13T04:16:46.013Z,14.00
2017-12-13T04:19:12.697Z,13.87
2017-12-13T04:21:39.458Z,12.63
2017-12-13T04:24:19.744Z,12.70
2017-12-13T04:26:49.729Z,12.93
2017-12-13T04:29:19.749Z,13.07
2017-12-13T04:31:50.369Z,13.30
2017-12-13T04:34:17.103Z,14.20
2017-12-13T04:36:43.809Z,12.57
2017-12-13T04:39:11.571Z,13.83
2017-12-13T04:41:45.095Z,13.07
2017-12-13T04:44:21.699Z,15.33
2017-12-13T04:46:48.435Z,13.93
2017-12-13T04:49:15.111Z,18.00
2017-12-13T04:51:46.871Z,18.20
2017-12-13T04:54:14.621Z,18.23
2017-12-13T04:56:41.365Z,18.20
2017-12-13T04:59:08.115Z,19.90
2017-12-13T05:01:34.827Z,22.37
2017-12-13T05:04:07.943Z,26.67
2017-12-13T05:06:34.711Z,25.80
2017-12-13T05:09:04.609Z,26.10
2017-12-13T05:11:31.382Z,26.80
2017-12-13T05:13:58.123Z,30.07
2017-12-13T05:16:34.769Z,29.30
2017-12-13T05:19:08.449Z,28.33
2017-12-13T05:21:40.215Z,26.67
2017-12-13T05:24:24.656Z,22.17
2017-12-13T05:26:55.058Z,27.43
2017-12-13T05:29:21.781Z,28.30
2017-12-13T05:31:48.553Z,27.30
2017-12-13T05:34:22.629Z,29.73
2017-12-13T05:36:57.723Z,30.57
2017-12-13T05:39:28.415Z,27.73
2017-12-13T05:41:55.151Z,27.90
2017-12-13T05:44:36.719Z,31.50
2017-12-13T05:47:07.323Z,31.40
2017-12-13T05:49:50.637Z,32.67
2017-12-13T05:52:22.489Z,33.40
2017-12-13T05:54:49.252Z,28.23
2017-12-13T05:57:26.593Z,38.40
2017-12-13T06:02:38.733Z,34.23
2017-12-13T06:05:08.605Z,36.33
2017-12-13T06:07:35.312Z,35.63
2017-12-13T06:10:02.047Z,33.93
2017-12-13T06:12:28.955Z,30.13
2017-12-13T06:15:00.948Z,29.00
2017-12-13T06:17:34.459Z,31.10
2017-12-13T06:20:06.343Z,27.20
2017-12-13T06:22:33.084Z,31.70
2017-12-13T06:24:59.840Z,27.03
2017-12-13T06:27:26.545Z,27.33
2017-12-13T06:29:56.265Z,26.40
2017-12-13T06:32:23.051Z,42.30
2017-12-13T06:34:49.779Z,44.50
2017-12-13T06:37:29.601Z,46.50
2017-12-13T06:40:11.174Z,47.43
2017-12-13T06:42:37.897Z,53.47
2017-12-13T06:45:04.717Z,54.47
2017-12-13T06:47:31.459Z,61.73
2017-12-13T06:49:58.199Z,64.67
2017-12-13T06:52:24.939Z,69.93
2017-12-13T06:54:51.672Z,79.70
2017-12-13T07:00:04.217Z,87.63
2017-12-13T07:08:15.197Z,78.33
2017-12-13T07:10:56.809Z,77.17
2017-12-13T07:13:24.541Z,73.50
2017-12-13T07:15:56.687Z,70.97
2017-12-13T07:18:23.447Z,76.80
2017-12-13T07:21:01.748Z,74.10
2017-12-13T07:23:28.437Z,73.93
2017-12-13T07:26:09.732Z,72.20
2017-12-13T07:28:36.436Z,71.37
2017-12-13T07:31:03.184Z,70.20
2017-12-13T07:33:30.962Z,73.13
2017-12-13T07:36:04.505Z,71.53
2017-12-13T07:38:31.226Z,85.27
2017-12-13T07:40:57.921Z,88.53
2017-12-13T07:43:24.657Z,96.40
2017-12-13T07:45:51.437Z,99.47
2017-12-13T07:51:03.561Z,85.63
2017-12-13T07:53:30.251Z,85.20
2017-12-13T07:55:56.951Z,91.60
2017-12-13T07:58:23.701Z,88.97
2017-12-13T08:00:50.387Z,89.17
2017-12-13T08:03:24.107Z,86.43
2017-12-13T08:05:50.813Z,79.70
2017-12-13T08:11:15.644Z,63.13
2017-12-13T08:13:42.367Z,59.07
2017-12-13T08:16:22.829Z,58.40
2017-12-13T08:18:54.171Z,60.30
2017-12-13T08:21:27.747Z,65.83
2017-12-13T08:23:54.477Z,71.83
2017-12-13T08:29:12.951Z,71.27
2017-12-13T08:31:48.387Z,66.77
2017-12-13T08:34:17.278Z,67.40
2017-12-13T08:36:48.906Z,62.57
2017-12-13T08:39:21.367Z,66.80
2017-12-13T08:41:50.040Z,63.73
2017-12-13T08:44:16.739Z,61.97
2017-12-13T08:46:44.476Z,57.90
2017-12-13T08:49:11.179Z,60.87
2017-12-13T08:51:38.843Z,62.93
2017-12-13T08:54:07.557Z,61.70
2017-12-13T08:56:38.103Z,69.50
2017-12-13T08:59:04.793Z,68.87
2017-12-13T09:01:31.652Z,65.17
2017-12-13T09:04:06.388Z,65.90
2017-12-13T09:06:45.703Z,73.13
2017-12-13T09:09:19.740Z,71.93
2017-12-13T09:11:46.560Z,67.80
2017-12-13T09:14:19.162Z,65.73
2017-12-13T09:16:56.686Z,69.50
2017-12-13T09:19:23.406Z,65.77
2017-12-13T09:22:06.728Z,63.03
2017-12-13T09:24:39.236Z,63.70
2017-12-13T09:27:06.005Z,61.70
2017-12-13T09:29:37.446Z,68.13
2017-12-13T09:32:18.476Z,59.40
2017-12-13T09:34:47.214Z,62.67
2017-12-13T09:37:13.943Z,66.43
2017-12-13T09:39:40.657Z,65.30
2017-12-13T09:42:08.368Z,71.50
2017-12-13T09:44:38.160Z,63.90
2017-12-13T09:47:04.866Z,58.63
2017-12-13T09:49:31.567Z,58.67
2017-12-13T09:51:58.302Z,56.70
2017-12-13T09:54:30.904Z,60.50
2017-12-13T09:56:58.574Z,63.67
2017-12-13T09:59:25.315Z,63.00
2017-12-13T10:01:58.346Z,64.23
2017-12-13T10:04:25.320Z,67.13
2017-12-13T10:06:53.048Z,64.30
2017-12-13T10:09:30.413Z,62.47
2017-12-13T10:11:58.062Z,63.37
2017-12-13T10:14:24.756Z,61.70
2017-12-13T10:16:51.478Z,61.83
2017-12-13T10:19:31.264Z,64.23
2017-12-13T10:21:58.992Z,56.77
2017-12-13T10:24:31.864Z,66.07
2017-12-13T10:26:58.617Z,55.47
2017-12-13T10:29:26.308Z,57.70
2017-12-13T10:31:52.997Z,58.50
2017-12-13T10:34:33.450Z,53.77
2017-12-13T10:37:06.069Z,59.33
2017-12-13T10:39:32.854Z,58.33
2017-12-13T10:42:03.823Z,56.50
2017-12-13T10:44:38.658Z,56.63
2017-12-13T10:47:15.959Z,55.60
2017-12-13T10:49:42.702Z,55.90
2017-12-13T10:52:09.476Z,52.03
2017-12-13T10:54:51.541Z,51.80
2017-12-13T10:57:20.288Z,46.93
2017-12-13T10:59:47.008Z,42.33
2017-12-13T11:02:13.832Z,40.17
2017-12-13T11:04:47.816Z,35.00
2017-12-13T11:07:18.275Z,31.10
2017-12-13T11:09:44.960Z,27.93
2017-12-13T11:12:17.422Z,25.40
2017-12-13T11:14:53.879Z,22.23
2017-12-13T11:17:20.578Z,20.67
2017-12-13T11:19:47.290Z,21.17
2017-12-13T11:22:14.043Z,18.33
2017-12-13T11:27:33.086Z,18.57
2017-12-13T11:29:59.768Z,17.77
2017-12-13T11:32:27.430Z,16.77
2017-12-13T11:34:54.190Z,16.87
2017-12-13T11:37:20.871Z,15.50
2017-12-13T11:39:49.584Z,17.40
2017-12-13T11:42:16.322Z,15.33
2017-12-13T11:44:43.016Z,13.60
2017-12-13T11:47:09.762Z,16.33
2017-12-13T11:49:39.558Z,15.63
2017-12-13T11:52:06.266Z,14.87
2017-12-13T11:54:46.712Z,14.53
2017-12-13T11:57:15.441Z,12.80
2017-12-13T11:59:42.126Z,13.40
2017-12-13T12:02:08.838Z,11.90
2017-12-13T12:04:37.518Z,11.23
2017-12-13T12:07:04.192Z,14.27
2017-12-13T12:09:35.030Z,13.43
2017-12-13T12:12:07.397Z,12.23
2017-12-13T12:14:35.590Z,12.03
2017-12-13T12:17:02.601Z,13.97
2017-12-13T12:19:29.290Z,15.17
2017-12-13T12:21:59.509Z,14.13
2017-12-13T12:24:28.270Z,14.67
2017-12-13T12:26:54.958Z,15.27
2017-12-13T12:29:31.924Z,14.10
2017-12-13T12:32:00.590Z,16.33
2017-12-13T12:34:42.142Z,15.17
2017-12-13T12:37:09.843Z,15.40
2017-12-13T12:39:46.622Z,15.27
2017-12-13T12:45:02.143Z,12.17
2017-12-13T12:50:22.030Z,12.67
2017-12-13T12:52:48.730Z,10.10
2017-12-13T12:55:15.421Z,7.57
2017-12-13T12:57:52.935Z,5.57
2017-12-13T13:00:28.443Z,5.50
2017-12-13T13:02:55.146Z,6.77
2017-12-13T13:05:21.852Z,6.23
2017-12-13T13:07:48.544Z,6.40
2017-12-13T13:10:15.266Z,7.07
2017-12-13T13:12:42.288Z,7.63
2017-12-13T13:15:12.058Z,7.43
2017-12-13T13:17:52.840Z,6.80
2017-12-13T13:20:30.467Z,8.40
2017-12-13T13:22:57.276Z,7.97
2017-12-13T13:25:23.966Z,8.93
2017-12-13T13:27:54.086Z,8.90
2017-12-13T13:30:31.382Z,8.20
2017-12-13T13:32:58.058Z,9.13
2017-12-13T13:35:24.756Z,10.60
2017-12-13T13:37:54.810Z,9.50
2017-12-13T13:40:21.509Z,8.63
2017-12-13T13:42:48.194Z,9.97
2017-12-13T13:45:14.928Z,9.57
2017-12-13T13:47:47.588Z,10.77
2017-12-13T13:52:59.626Z,12.67
2017-12-13T13:55:26.322Z,12.17
2017-12-13T13:57:56.072Z,12.53
2017-12-13T14:00:26.766Z,13.00
2017-12-13T14:02:53.462Z,13.77
2017-12-13T14:05:20.168Z,14.03
2017-12-13T14:07:46.884Z,13.43
2017-12-13T14:10:13.572Z,15.13
2017-12-13T14:12:40.263Z,11.17
2017-12-13T14:15:12.894Z,10.50
2017-12-13T14:17:42.837Z,12.60
2017-12-13T14:20:09.532Z,14.13
2017-12-13T14:22:42.779Z,15.13
2017-12-13T14:25:15.232Z,15.97
2017-12-13T14:30:33.838Z,13.63
2017-12-13T14:33:03.868Z,13.70
2017-12-13T14:35:30.536Z,14.83
2017-12-13T14:37:57.220Z,14.97
2017-12-13T14:40:23.947Z,17.33
2017-12-13T14:42:50.652Z,18.20
2017-12-13T14:45:17.390Z,22.53
2017-12-13T14:47:44.120Z,21.80
2017-12-13T14:50:23.343Z,23.33
2017-12-13T14:52:55.145Z,24.90
2017-12-13T14:55:33.841Z,24.33
2017-12-13T14:58:00.560Z,25.00
2017-12-13T15:00:30.709Z,27.57
2017-12-13T15:03:03.614Z,26.27
2017-12-13T15:05:30.343Z,25.57
2017-12-13T15:07:57.102Z,31.47
2017-12-13T15:10:23.818Z,35.37
2017-12-13T15:12:50.512Z,39.43
2017-12-13T15:15:29.978Z,40.60
2017-12-13T15:17:56.669Z,36.37
2017-12-13T15:20:23.352Z,39.20
2017-12-13T15:23:02.274Z,36.80
2017-12-13T15:25:38.883Z,38.17
2017-12-13T15:30:54.734Z,43.83
2017-12-13T15:33:21.488Z,43.30
2017-12-13T15:35:48.179Z,40.77
2017-12-13T15:38:15.894Z,47.40
2017-12-13T15:40:42.646Z,46.83
2017-12-13T15:43:09.332Z,52.10
2017-12-13T15:45:42.470Z,55.13
2017-12-13T15:48:16.450Z,54.47
2017-12-13T15:50:53.099Z,52.40
2017-12-13T15:53:19.797Z,46.17
2017-12-13T15:55:46.498Z,43.77
2017-12-13T15:58:13.215Z,38.73
2017-12-13T16:00:41.891Z,34.90
2017-12-13T16:03:08.626Z,39.43
2017-12-13T16:05:35.344Z,37.07
2017-12-13T16:08:12.692Z,34.87
2017-12-13T16:10:50.194Z,30.87
2017-12-13T16:13:28.158Z,31.93
2017-12-13T16:15:54.867Z,33.30
2017-12-13T16:18:21.563Z,32.97
2017-12-13T16:20:48.272Z,34.50
2017-12-13T16:23:23.058Z,36.23
2017-12-13T16:25:49.763Z,39.53
2017-12-13T16:28:16.504Z,47.53
2017-12-13T16:30:43.368Z,52.97
2017-12-13T16:33:10.102Z,58.43
2017-12-13T16:35:49.638Z,65.10
2017-12-13T16:38:16.552Z,71.37
2017-12-13T16:40:43.399Z,68.03
2017-12-13T16:43:16.895Z,66.03
2017-12-13T16:45:50.008Z,69.13
2017-12-13T16:48:16.781Z,64.50
2017-12-13T16:50:47.332Z,64.07
2017-12-13T16:53:14.049Z,61.87
2017-12-13T16:55:40.787Z,60.53
2017-12-13T16:58:07.478Z,65.67
2017-12-13T17:00:34.182Z,64.33
2017-12-13T17:03:11.298Z,67.33
2017-12-13T17:05:37.997Z,65.83
2017-12-13T17:08:13.393Z,69.97
2017-12-13T17:10:40.083Z,77.60
2017-12-13T17:13:20.501Z,84.37
2017-12-13T17:15:47.192Z,85.97
2017-12-13T17:18:13.885Z,82.17
2017-12-13T17:20:40.767Z,78.87
2017-12-13T17:23:11.586Z,74.20
2017-12-13T17:25:38.629Z,66.17
2017-12-13T17:28:05.331Z,62.33
2017-12-13T17:30:32.850Z,53.97
2017-12-13T17:32:59.546Z,53.57
2017-12-13T17:35:26.314Z,53.17
2017-12-13T17:37:53.057Z,56.03
2017-12-13T17:40:19.819Z,63.63
2017-12-13T17:42:46.867Z,70.07
2017-12-13T17:45:13.690Z,76.83
2017-12-13T17:47:40.481Z,67.80
2017-12-13T17:50:07.223Z,65.93
2017-12-13T17:52:33.922Z,63.80
2017-12-13T17:55:02.352Z,68.17
2017-12-13T17:57:29.078Z,71.13
2017-12-13T17:59:55.762Z,73.33
2017-12-13T18:02:22.463Z,70.87
2017-12-13T18:04:49.231Z,72.63
2017-12-13T18:07:16.022Z,75.00
2017-12-13T18:09:42.924Z,75.30
2017-12-13T18:12:09.677Z,78.70
2017-12-13T18:14:36.369Z,81.20
2017-12-13T18:17:03.068Z,82.30
2017-12-13T18:19:29.840Z,87.07
2017-12-13T18:21:56.512Z,94.30
2017-12-13T18:24:23.193Z,86.33
2017-12-13T18:26:49.900Z,73.00
2017-12-13T18:29:16.604Z,67.87
2017-12-13T18:31:43.287Z,69.30
2017-12-13T18:34:10.027Z,71.70
2017-12-13T18:36:36.778Z,72.53
2017-12-13T18:39:03.468Z,79.23
2017-12-13T18:41:30.219Z,80.07
2017-12-13T18:43:56.918Z,75.13
2017-12-13T18:46:23.623Z,74.33
2017-12-13T18:48:50.362Z,68.43
2017-12-13T18:51:17.067Z,70.77
2017-12-13T18:53:43.786Z,63.97
2017-12-13T18:56:10.583Z,64.77
2017-12-13T18:58:37.267Z,62.00
2017-12-13T19:01:04.003Z,55.77
2017-12-13T19:03:30.753Z,58.97
2017-12-13T19:05:57.440Z,62.57
2017-12-13T19:08:24.132Z,61.27
2017-12-13T19:10:50.866Z,65.23
2017-12-13T19:13:17.555Z,61.53
2017-12-13T19:15:44.236Z,61.40
2017-12-13T19:18:10.995Z,63.93
2017-12-13T19:20:37.685Z,65.10
2017-12-13T19:23:04.384Z,67.50
2017-12-13T19:25:31.141Z,72.90
2017-12-13T19:27:57.833Z,70.60
2017-12-13T19:30:24.593Z,63.47
2017-12-13T19:32:51.338Z,63.03
2017-12-13T19:35:18.041Z,57.77
2017-12-13T19:37:44.741Z,59.80
2017-12-13T19:40:11.473Z,64.67
2017-12-13T19:42:38.179Z,62.23
2017-12-13T19:45:04.879Z,68.67
2017-12-13T19:47:31.581Z,71.57
2017-12-13T19:49:58.261Z,71.23
2017-12-13T19:52:24.954Z,70.83
2017-12-13T19:54:51.675Z,66.87
2017-12-13T19:57:18.374Z,62.23
2017-12-13T19:59:45.069Z,55.23
2017-12-13T20:02:11.789Z,55.90
2017-12-13T20:04:38.475Z,60.73
2017-12-13T20:07:05.175Z,60.03
2017-12-13T20:09:31.918Z,63.17
2017-12-13T20:11:58.607Z,61.60
2017-12-13T20:14:25.291Z,61.20
2017-12-13T20:16:51.994Z,56.77
2017-12-13T20:19:18.688Z,51.17
2017-12-13T20:21:45.374Z,55.47
2017-12-13T20:24:12.128Z,51.80
2017-12-13T20:26:38.822Z,50.20
2017-12-13T20:29:05.522Z,52.57
2017-12-13T20:31:32.236Z,52.53
2017-12-13T20:33:58.924Z,48.10
2017-12-13T20:36:25.617Z,49.17
2017-12-13T20:38:52.314Z,48.17
2017-12-13T20:41:19.004Z,48.90
2017-12-13T20:43:45.697Z,47.43
2017-12-13T20:46:12.495Z,46.50
2017-12-13T20:48:39.195Z,46.27
2017-12-13T20:51:05.883Z,45.90
2017-12-13T20:53:32.620Z,45.33
2017-12-13T20:55:59.316Z,48.43
2017-12-13T20:58:26.013Z,51.90
2017-12-13T21:00:52.752Z,52.93
2017-12-13T21:03:19.440Z,52.43
2017-12-13T21:05:46.140Z,52.60
2017-12-13T21:08:12.870Z,53.50
2017-12-13T21:10:39.554Z,51.07
2017-12-13T21:13:06.234Z,57.83
2017-12-13T21:15:39.613Z,57.73
2017-12-13T21:18:06.312Z,57.40
2017-12-13T21:20:33.020Z,60.13
2017-12-13T21:22:59.778Z,60.90
2017-12-13T21:25:26.516Z,59.63
2017-12-13T21:27:53.199Z,61.87
2017-12-13T21:30:28.612Z,60.17
2017-12-13T21:32:55.306Z,59.23
2017-12-13T21:35:29.047Z,62.10
2017-12-13T21:37:55.738Z,61.50
2017-12-13T21:40:22.424Z,64.90
2017-12-13T21:42:55.334Z,66.17
2017-12-13T21:45:29.046Z,62.83
2017-12-13T21:47:55.774Z,65.90
2017-12-13T21:50:22.462Z,59.83
2017-12-13T21:53:01.761Z,56.10
2017-12-13T21:55:28.494Z,49.83
2017-12-13T21:58:08.667Z,48.97
2017-12-13T22:00:41.660Z,48.27
2017-12-13T22:03:13.586Z,46.73
2017-12-13T22:05:54.666Z,48.67
2017-12-13T22:08:26.846Z,48.50
2017-12-13T22:10:57.319Z,51.77
2017-12-13T22:13:31.551Z,52.07
2017-12-13T22:15:58.270Z,53.73
2017-12-13T22:18:28.510Z,51.87
2017-12-13T22:20:55.343Z,47.77
2017-12-13T22:23:39.388Z,51.73
2017-12-13T22:26:16.876Z,50.87
2017-12-13T22:28:47.343Z,50.27
2017-12-13T22:31:14.083Z,48.17
2017-12-13T22:33:40.838Z,44.20
2017-12-13T22:36:07.550Z,45.37
2017-12-13T22:38:44.399Z,44.97
2017-12-13T22:41:15.706Z,43.63
2017-12-13T22:43:42.432Z,50.10
2017-12-13T22:46:17.494Z,44.67
2017-12-13T22:48:56.694Z,44.40
2017-12-13T22:51:23.439Z,42.97
2017-12-13T22:53:51.129Z,41.90
2017-12-13T22:56:17.870Z,40.37
2017-12-13T22:58:55.133Z,37.97
2017-12-13T23:01:21.813Z,36.70
2017-12-13T23:03:48.555Z,37.43
2017-12-13T23:06:15.299Z,34.77
2017-12-13T23:08:42.023Z,37.23
2017-12-13T23:11:14.597Z,36.03
2017-12-13T23:13:43.319Z,34.80
2017-12-13T23:16:10.043Z,35.03
2017-12-13T23:18:36.727Z,30.93
2017-12-13T23:21:06.735Z,30.10
2017-12-13T23:23:33.465Z,26.20
2017-12-13T23:26:00.213Z,25.87
2017-12-13T23:28:27.006Z,24.70
2017-12-13T23:30:53.713Z,25.67
2017-12-13T23:33:20.463Z,24.50
2017-12-13T23:35:59.461Z,26.70
2017-12-13T23:38:40.740Z,26.27
2017-12-13T23:41:20.369Z,27.13
2017-12-13T23:43:48.083Z,26.77
2017-12-13T23:46:14.816Z,27.43
2017-12-13T23:48:42.505Z,26.10
2017-12-13T23:51:12.384Z,25.63
2017-12-13T23:53:41.095Z,24.97
2017-12-13T23:56:07.844Z,25.60
2017-12-13T23:58:34.587Z,25.07
